createdAt,value
2019-06-07T00:00:35.005Z,99.90
2019-06-07T00:02:42.491Z,99.90
2019-06-07T00:05:14.961Z,99.90
2019-06-07T00:07:41.499Z,99.90
2019-06-07T00:10:14.466Z,99.90
2019-06-07T00:12:40.965Z,99.90
2019-06-07T00:15:15.004Z,99.90
2019-06-07T00:17:40.630Z,99.90
2019-06-07T00:20:13.818Z,99.90
2019-06-07T00:22:40.218Z,99.90
2019-06-07T00:25:12.753Z,99.90
2019-06-07T00:27:40.424Z,99.90
2019-06-07T00:30:32.533Z,99.90
2019-06-07T00:32:40.570Z,99.90
2019-06-07T00:35:12.071Z,99.90
2019-06-07T00:37:41.851Z,99.90
2019-06-07T00:40:17.740Z,99.90
2019-06-07T00:42:41.995Z,99.90
2019-06-07T00:45:11.987Z,99.90
2019-06-07T00:47:41.512Z,99.90
2019-06-07T00:50:11.344Z,99.90
2019-06-07T00:53:13.961Z,99.90
2019-06-07T00:55:14.274Z,99.90
2019-06-07T00:57:41.727Z,99.90
2019-06-07T01:00:12.521Z,99.90
2019-06-07T01:02:41.475Z,99.90
2019-06-07T01:05:10.387Z,99.90
2019-06-07T01:07:39.528Z,99.90
2019-06-07T01:10:11.567Z,99.90
2019-06-07T01:12:40.712Z,99.90
2019-06-07T01:15:11.915Z,99.90
2019-06-07T01:18:11.964Z,99.90
2019-06-07T01:20:12.239Z,99.90
2019-06-07T01:22:40.791Z,99.90
2019-06-07T01:25:10.102Z,99.90
2019-06-07T01:27:39.344Z,99.90
2019-06-07T01:30:12.111Z,99.90
2019-06-07T01:32:40.749Z,99.90
2019-06-07T01:35:09.734Z,99.90
2019-06-07T01:37:38.484Z,99.90
2019-06-07T01:40:07.724Z,99.90
2019-06-07T01:42:36.544Z,99.90
2019-06-07T01:45:08.739Z,99.90
2019-06-07T01:47:37.249Z,99.90
2019-06-07T01:50:08.253Z,99.90
2019-06-07T01:52:36.856Z,99.90
2019-06-07T01:55:07.370Z,99.90
2019-06-07T01:57:47.755Z,99.90
2019-06-07T02:00:07.673Z,99.90
2019-06-07T02:02:36.332Z,99.90
2019-06-07T02:05:08.575Z,99.90
2019-06-07T02:07:37.535Z,99.90
2019-06-07T02:10:07.162Z,99.90
2019-06-07T02:12:42.903Z,99.90
2019-06-07T02:15:08.350Z,99.90
2019-06-07T02:17:37.373Z,99.90
2019-06-07T02:20:06.663Z,99.90
2019-06-07T02:22:35.382Z,99.90
2019-06-07T02:25:35.188Z,99.90
2019-06-07T02:27:36.571Z,99.90
2019-06-07T02:30:37.297Z,99.90
2019-06-07T02:32:37.773Z,99.90
2019-06-07T02:35:07.562Z,99.90
2019-06-07T02:37:37.206Z,99.90
2019-06-07T02:40:09.793Z,99.90
2019-06-07T02:42:42.698Z,99.90
2019-06-07T02:45:10.690Z,99.90
2019-06-07T02:47:39.953Z,99.90
2019-06-07T02:50:10.523Z,99.90
2019-06-07T02:52:40.954Z,99.90
2019-06-07T02:55:10.131Z,99.90
2019-06-07T02:57:41.442Z,99.90
2019-06-07T03:00:40.598Z,99.90
2019-06-07T03:02:42.086Z,99.90
2019-06-07T03:05:11.493Z,99.90
2019-06-07T03:07:45.311Z,99.90
2019-06-07T03:10:12.582Z,99.90
2019-06-07T03:12:43.165Z,99.90
2019-06-07T03:15:32.327Z,99.90
2019-06-07T03:17:48.441Z,99.90
2019-06-07T03:20:22.191Z,99.90
2019-06-07T03:22:51.604Z,99.90
2019-06-07T03:25:20.222Z,99.90
2019-06-07T03:27:50.317Z,99.90
2019-06-07T03:30:40.166Z,99.90
2019-06-07T03:32:49.531Z,99.90
2019-06-07T03:35:18.414Z,99.90
2019-06-07T03:37:47.007Z,99.90
2019-06-07T03:40:15.719Z,99.90
2019-06-07T03:42:44.297Z,99.90
2019-06-07T03:45:12.963Z,99.90
2019-06-07T03:47:43.037Z,99.90
2019-06-07T03:50:12.699Z,99.90
2019-06-07T03:52:41.858Z,99.90
2019-06-07T03:55:10.735Z,99.90
2019-06-07T03:58:29.340Z,99.90
2019-06-07T04:00:10.196Z,99.90
2019-06-07T04:02:41.871Z,99.90
2019-06-07T04:05:08.986Z,99.90
2019-06-07T04:07:43.455Z,99.90
2019-06-07T04:10:08.143Z,99.90
2019-06-07T04:12:39.969Z,99.90
2019-06-07T04:15:07.654Z,99.90
2019-06-07T04:17:39.307Z,99.90
2019-06-07T04:20:06.915Z,99.90
2019-06-07T04:22:39.525Z,99.90
2019-06-07T04:25:09.950Z,99.90
2019-06-07T04:27:40.814Z,99.90
2019-06-07T04:30:10.134Z,99.90
2019-06-07T04:32:40.577Z,99.90
2019-06-07T04:35:08.998Z,99.90
2019-06-07T04:37:41.157Z,99.90
2019-06-07T04:40:09.002Z,99.90
2019-06-07T04:42:43.862Z,99.90
2019-06-07T04:45:32.677Z,99.90
2019-06-07T04:47:42.621Z,99.90
2019-06-07T04:50:11.375Z,99.90
2019-06-07T04:52:42.775Z,99.90
2019-06-07T04:55:10.433Z,99.90
2019-06-07T04:57:42.822Z,99.90
2019-06-07T05:00:48.666Z,99.90
2019-06-07T05:02:56.119Z,99.90
2019-06-07T05:05:24.710Z,99.90
2019-06-07T05:07:53.398Z,99.90
2019-06-07T05:10:22.022Z,99.90
2019-06-07T05:12:50.569Z,99.90
2019-06-07T05:15:19.490Z,99.90
2019-06-07T05:17:48.083Z,99.90
2019-06-07T05:20:17.211Z,99.90
2019-06-07T05:22:45.940Z,99.90
2019-06-07T05:25:15.597Z,99.90
2019-06-07T05:27:46.940Z,99.90
2019-06-07T05:30:51.011Z,99.90
2019-06-07T05:32:48.049Z,99.90
2019-06-07T05:35:16.887Z,99.90
2019-06-07T05:37:45.963Z,99.90
2019-06-07T05:40:17.854Z,99.90
2019-06-07T05:42:46.884Z,99.90
2019-06-07T05:45:18.681Z,99.90
2019-06-07T05:47:51.112Z,99.90
2019-06-07T05:50:38.379Z,99.90
2019-06-07T05:52:47.839Z,99.90
2019-06-07T05:55:16.477Z,99.90
2019-06-07T05:57:49.162Z,99.90
2019-06-07T06:00:15.442Z,99.90
2019-06-07T06:03:00.198Z,99.90
2019-06-07T06:05:32.463Z,99.90
2019-06-07T06:07:49.571Z,99.90
2019-06-07T06:10:14.916Z,99.90
2019-06-07T06:12:51.269Z,99.90
2019-06-07T06:15:14.003Z,99.90
2019-06-07T06:17:45.976Z,99.90
2019-06-07T06:20:13.922Z,99.90
2019-06-07T06:22:44.855Z,99.90
2019-06-07T06:30:16.078Z,99.90
2019-06-07T06:32:52.649Z,99.90
2019-06-07T06:35:15.328Z,99.90
2019-06-07T06:37:47.180Z,99.90
2019-06-07T06:40:16.204Z,99.90
2019-06-07T06:42:48.421Z,99.90
2019-06-07T06:45:18.135Z,99.90
2019-06-07T06:47:48.878Z,99.90
2019-06-07T06:50:17.589Z,99.90
2019-06-07T06:52:48.526Z,99.90
2019-06-07T06:55:16.749Z,99.90
2019-06-07T06:57:45.845Z,99.90
2019-06-07T07:00:15.959Z,99.90
2019-06-07T07:03:35.055Z,99.90
2019-06-07T07:05:15.476Z,99.90
2019-06-07T07:07:45.408Z,99.90
2019-06-07T07:10:16.329Z,99.90
2019-06-07T07:12:45.498Z,99.90
2019-06-07T07:15:17.610Z,99.90
2019-06-07T07:17:56.670Z,99.90
2019-06-07T07:20:16.517Z,99.90
2019-06-07T07:22:47.649Z,99.90
2019-06-07T07:25:15.468Z,99.90
2019-06-07T07:27:44.601Z,99.90
2019-06-07T07:30:35.901Z,99.90
2019-06-07T07:32:46.135Z,99.90
2019-06-07T07:35:14.673Z,99.90
2019-06-07T07:37:45.417Z,99.90
2019-06-07T07:40:55.328Z,99.90
2019-06-07T07:42:45.193Z,99.90
2019-06-07T07:45:14.301Z,99.90
2019-06-07T07:48:03.458Z,99.90
2019-06-07T07:50:13.396Z,99.90
2019-06-07T07:52:41.998Z,99.90
2019-06-07T07:55:10.726Z,99.90
2019-06-07T07:57:39.275Z,99.90
2019-06-07T08:00:48.735Z,99.90
2019-06-07T08:02:38.595Z,99.90
2019-06-07T08:05:25.277Z,99.90
2019-06-07T08:07:38.473Z,99.90
2019-06-07T08:10:08.415Z,99.90
2019-06-07T08:12:55.867Z,99.90
2019-06-07T08:15:08.084Z,99.90
2019-06-07T08:17:36.731Z,99.90
2019-06-07T08:20:09.532Z,99.90
2019-06-07T08:22:38.281Z,99.90
2019-06-07T08:25:07.897Z,99.90
2019-06-07T08:27:37.963Z,99.90
2019-06-07T08:30:46.528Z,99.90
2019-06-07T08:32:39.704Z,99.90
2019-06-07T08:35:08.829Z,99.90
2019-06-07T08:40:09.316Z,99.90
2019-06-07T08:42:59.475Z,99.90
2019-06-07T08:45:09.546Z,99.90
2019-06-07T08:47:38.270Z,99.90
2019-06-07T08:50:09.406Z,99.90
2019-06-07T08:52:38.113Z,99.90
2019-06-07T08:55:07.092Z,99.90
2019-06-07T08:57:35.701Z,99.90
2019-06-07T09:00:42.527Z,99.90
2019-06-07T09:02:37.777Z,99.90
2019-06-07T09:05:12.314Z,99.90
2019-06-07T09:07:37.530Z,99.90
2019-06-07T09:10:14.466Z,99.90
2019-06-07T09:12:40.725Z,99.90
2019-06-07T09:15:21.240Z,99.90
2019-06-07T09:18:29.740Z,99.90
2019-06-07T09:20:35.015Z,99.90
2019-06-07T09:22:42.337Z,99.90
2019-06-07T09:25:20.563Z,99.90
2019-06-07T09:27:41.403Z,99.90
2019-06-07T09:30:16.313Z,99.90
2019-06-07T09:32:41.098Z,99.90
2019-06-07T09:35:16.625Z,99.90
2019-06-07T09:38:07.904Z,99.90
2019-06-07T09:40:24.837Z,99.90
2019-06-07T09:42:41.518Z,99.90
2019-06-07T09:45:13.940Z,99.90
2019-06-07T09:47:40.773Z,99.90
2019-06-07T09:50:12.211Z,99.90
2019-06-07T09:52:57.231Z,99.90
2019-06-07T09:55:22.860Z,99.90
2019-06-07T09:57:40.377Z,99.90
2019-06-07T10:00:38.958Z,99.90
2019-06-07T10:02:44.392Z,99.90
2019-06-07T10:05:14.268Z,99.90
2019-06-07T10:08:00.013Z,99.90
2019-06-07T10:12:44.103Z,99.90
2019-06-07T10:15:13.052Z,99.90
2019-06-07T10:17:41.615Z,99.90
2019-06-07T10:20:10.750Z,99.90
2019-06-07T10:22:39.454Z,99.90
2019-06-07T10:25:08.583Z,99.90
2019-06-07T10:27:37.399Z,99.90
2019-06-07T10:30:10.373Z,99.90
2019-06-07T10:32:39.172Z,99.90
2019-06-07T10:35:11.374Z,99.90
2019-06-07T10:37:38.812Z,99.90
2019-06-07T10:40:09.081Z,99.90
2019-06-07T10:42:37.911Z,99.90
2019-06-07T10:45:08.294Z,99.90
2019-06-07T10:47:37.870Z,99.90
2019-06-07T10:50:08.106Z,99.90
2019-06-07T10:52:36.873Z,99.90
2019-06-07T10:55:06.528Z,99.90
2019-06-07T10:57:35.313Z,99.90
2019-06-07T11:00:07.177Z,99.90
2019-06-07T11:02:35.845Z,99.90
2019-06-07T11:05:08.086Z,99.90
2019-06-07T11:07:36.996Z,99.90
2019-06-07T11:10:14.561Z,99.90
2019-06-07T11:12:38.454Z,99.90
2019-06-07T11:15:08.957Z,99.90
2019-06-07T11:17:38.066Z,99.90
2019-06-07T11:20:08.198Z,99.90
2019-06-07T11:22:37.011Z,99.10
2019-06-07T11:25:07.753Z,99.50
2019-06-07T11:27:36.778Z,98.90
2019-06-07T11:30:08.662Z,99.00
2019-06-07T11:32:37.287Z,96.80
2019-06-07T11:35:10.651Z,97.70
2019-06-07T11:37:39.889Z,96.90
2019-06-07T11:40:27.733Z,95.60
2019-06-07T11:42:40.528Z,93.70
2019-06-07T11:45:12.465Z,94.00
2019-06-07T11:47:40.900Z,92.90
2019-06-07T11:50:11.740Z,90.20
2019-06-07T11:52:40.480Z,88.80
2019-06-07T11:55:11.598Z,91.00
2019-06-07T11:57:40.472Z,88.70
2019-06-07T12:00:13.938Z,90.30
2019-06-07T12:02:42.930Z,86.90
2019-06-07T12:05:16.197Z,86.80
2019-06-07T12:07:42.611Z,85.00
2019-06-07T12:10:12.546Z,86.70
2019-06-07T12:12:41.399Z,84.40
2019-06-07T12:15:11.007Z,81.50
2019-06-07T12:17:40.367Z,83.90
2019-06-07T12:20:11.293Z,83.90
2019-06-07T12:22:39.820Z,83.80
2019-06-07T12:25:10.205Z,84.20
2019-06-07T12:27:39.214Z,81.20
2019-06-07T12:30:11.235Z,81.30
2019-06-07T12:32:39.164Z,83.60
2019-06-07T12:35:08.352Z,84.10
2019-06-07T12:37:43.814Z,84.70
2019-06-07T12:40:08.500Z,83.10
2019-06-07T12:42:37.722Z,81.60
2019-06-07T12:45:07.055Z,82.70
2019-06-07T12:47:35.628Z,78.10
2019-06-07T12:50:08.296Z,80.00
2019-06-07T12:52:37.123Z,77.80
2019-06-07T12:55:07.556Z,77.20
2019-06-07T12:57:36.290Z,80.10
2019-06-07T13:00:12.191Z,77.50
2019-06-07T13:02:40.813Z,77.70
2019-06-07T13:05:10.133Z,77.30
2019-06-07T13:07:38.805Z,76.60
2019-06-07T13:10:09.338Z,78.00
2019-06-07T13:12:38.238Z,75.90
2019-06-07T13:15:08.142Z,76.70
2019-06-07T13:17:37.846Z,78.40
2019-06-07T13:20:07.955Z,78.20
2019-06-07T13:22:36.771Z,75.90
2019-06-07T13:25:07.483Z,72.60
2019-06-07T13:27:36.232Z,77.30
2019-06-07T13:30:10.271Z,78.50
2019-06-07T13:32:37.308Z,76.30
2019-06-07T13:35:07.390Z,75.30
2019-06-07T13:37:36.247Z,79.60
2019-06-07T13:40:07.768Z,74.10
2019-06-07T13:42:36.538Z,75.30
2019-06-07T13:45:09.186Z,74.80
2019-06-07T13:47:37.795Z,73.90
2019-06-07T13:50:07.928Z,73.60
2019-06-07T13:52:37.649Z,76.10
2019-06-07T13:55:06.798Z,73.40
2019-06-07T13:57:35.538Z,72.60
2019-06-07T14:00:10.804Z,73.70
2019-06-07T14:02:37.375Z,74.30
2019-06-07T14:05:09.192Z,74.40
2019-06-07T14:07:37.915Z,72.70
2019-06-07T14:10:11.509Z,74.90
2019-06-07T14:12:40.518Z,73.30
2019-06-07T14:15:10.957Z,73.60
2019-06-07T14:17:39.563Z,73.90
2019-06-07T14:20:09.326Z,73.20
2019-06-07T14:22:38.358Z,73.00
2019-06-07T14:25:10.052Z,70.10
2019-06-07T14:27:38.705Z,71.70
2019-06-07T14:30:11.774Z,72.30
2019-06-07T14:32:40.438Z,73.20
2019-06-07T14:35:09.462Z,70.20
2019-06-07T14:37:38.216Z,71.40
2019-06-07T14:40:09.031Z,73.40
2019-06-07T14:42:37.737Z,72.40
2019-06-07T14:45:08.145Z,72.40
2019-06-07T14:47:36.913Z,70.80
2019-06-07T14:50:08.573Z,74.30
2019-06-07T14:52:37.182Z,73.40
2019-06-07T14:55:07.333Z,75.40
2019-06-07T14:57:39.627Z,72.40
2019-06-07T15:00:13.756Z,70.80
2019-06-07T15:02:42.431Z,73.10
2019-06-07T15:05:11.370Z,73.30
2019-06-07T15:07:40.487Z,74.00
2019-06-07T15:10:10.353Z,72.30
2019-06-07T15:12:39.909Z,72.40
2019-06-07T15:15:10.558Z,72.90
2019-06-07T15:17:39.435Z,73.90
2019-06-07T15:20:08.571Z,74.00
2019-06-07T15:22:38.731Z,74.30
2019-06-07T15:25:09.259Z,76.90
2019-06-07T15:27:38.014Z,75.90
2019-06-07T15:30:11.109Z,76.20
2019-06-07T15:32:40.158Z,74.60
2019-06-07T15:35:08.942Z,74.50
2019-06-07T15:37:39.238Z,73.80
2019-06-07T15:40:09.027Z,74.10
2019-06-07T15:42:49.085Z,73.70
2019-06-07T15:45:09.655Z,74.60
2019-06-07T15:47:38.590Z,73.70
2019-06-07T15:50:09.465Z,75.10
2019-06-07T15:52:38.487Z,76.40
2019-06-07T15:55:10.231Z,75.20
2019-06-07T15:57:42.164Z,74.40
2019-06-07T16:00:16.180Z,74.70
2019-06-07T16:02:44.893Z,74.10
2019-06-07T16:05:15.355Z,76.40
2019-06-07T16:07:44.110Z,75.70
2019-06-07T16:10:14.287Z,77.80
2019-06-07T16:12:58.832Z,77.90
2019-06-07T16:15:14.001Z,80.70
2019-06-07T16:17:43.902Z,80.30
2019-06-07T16:22:49.258Z,82.30
2019-06-07T16:25:18.579Z,85.70
2019-06-07T16:27:47.260Z,86.70
2019-06-07T16:30:17.532Z,86.70
2019-06-07T16:32:46.396Z,88.40
2019-06-07T16:35:15.450Z,90.00
2019-06-07T16:37:45.871Z,88.50
2019-06-07T16:40:15.968Z,89.90
2019-06-07T16:42:45.164Z,91.00
2019-06-07T16:45:15.016Z,90.50
2019-06-07T16:47:47.153Z,90.90
2019-06-07T16:50:14.531Z,91.60
2019-06-07T16:52:44.186Z,92.30
2019-06-07T16:55:15.056Z,91.60
2019-06-07T16:57:45.058Z,91.50
2019-06-07T17:00:14.800Z,91.40
2019-06-07T17:02:45.020Z,91.80
2019-06-07T17:05:14.657Z,91.90
2019-06-07T17:07:44.710Z,91.80
2019-06-07T17:10:14.507Z,91.40
2019-06-07T17:12:44.681Z,91.30
2019-06-07T17:15:15.695Z,91.40
2019-06-07T17:17:45.177Z,91.20
2019-06-07T17:20:17.066Z,91.30
2019-06-07T17:22:45.768Z,91.80
2019-06-07T17:25:15.141Z,91.80
2019-06-07T17:27:43.953Z,91.80
2019-06-07T17:30:13.619Z,92.30
2019-06-07T17:32:50.606Z,93.70
2019-06-07T17:35:13.725Z,94.90
2019-06-07T17:37:44.323Z,94.70
2019-06-07T17:40:14.715Z,93.50
2019-06-07T17:42:43.327Z,92.90
2019-06-07T17:45:14.226Z,93.80
2019-06-07T17:47:43.738Z,93.70
2019-06-07T17:50:12.853Z,94.40
2019-06-07T17:52:41.842Z,94.30
2019-06-07T17:55:11.257Z,95.00
2019-06-07T17:57:39.973Z,95.40
2019-06-07T18:00:28.000Z,98.40
2019-06-07T18:02:43.039Z,99.80
2019-06-07T18:05:14.742Z,92.50
2019-06-07T18:07:47.767Z,90.80
2019-06-07T18:10:21.083Z,86.60
2019-06-07T18:12:50.241Z,83.40
2019-06-07T18:15:21.931Z,82.10
2019-06-07T18:17:51.124Z,83.10
2019-06-07T18:20:19.940Z,82.90
2019-06-07T18:22:49.237Z,84.30
2019-06-07T18:25:18.073Z,84.00
2019-06-07T18:27:47.034Z,84.70
2019-06-07T18:30:15.672Z,84.20
2019-06-07T18:32:44.808Z,85.10
2019-06-07T18:35:14.383Z,86.30
2019-06-07T18:37:43.637Z,87.00
2019-06-07T18:40:13.079Z,89.00
2019-06-07T18:42:42.346Z,89.80
2019-06-07T18:45:12.352Z,90.40
2019-06-07T18:47:41.154Z,90.90
2019-06-07T18:50:10.630Z,91.50
2019-06-07T18:52:41.035Z,91.80
2019-06-07T18:55:11.430Z,92.30
2019-06-07T18:57:40.506Z,92.70
2019-06-07T19:00:12.093Z,93.20
2019-06-07T19:02:41.320Z,93.60
2019-06-07T19:05:12.347Z,94.10
2019-06-07T19:07:41.043Z,94.70
2019-06-07T19:10:11.787Z,95.10
2019-06-07T19:13:00.523Z,95.50
2019-06-07T19:15:29.742Z,95.40
2019-06-07T19:17:58.387Z,95.30
2019-06-07T19:20:27.110Z,95.50
2019-06-07T19:22:56.506Z,95.80
2019-06-07T19:25:25.550Z,95.80
2019-06-07T19:27:54.990Z,95.80
2019-06-07T19:30:24.107Z,96.40
2019-06-07T19:32:53.112Z,96.70
2019-06-07T19:35:22.203Z,97.10
2019-06-07T19:37:53.937Z,97.60
2019-06-07T19:40:22.764Z,97.90
2019-06-07T19:42:52.187Z,98.50
2019-06-07T19:45:30.857Z,98.70
2019-06-07T19:47:52.405Z,99.10
2019-06-07T19:50:21.453Z,99.80
2019-06-07T19:52:50.008Z,99.90
2019-06-07T19:55:19.033Z,99.90
2019-06-07T19:57:50.069Z,99.90
2019-06-07T20:00:18.392Z,99.90
2019-06-07T20:02:47.143Z,99.90
2019-06-07T20:05:16.579Z,99.90
2019-06-07T20:07:45.335Z,99.90
2019-06-07T20:10:14.538Z,99.90
2019-06-07T20:12:43.329Z,99.90
2019-06-07T20:15:27.924Z,99.90
2019-06-07T20:17:43.264Z,99.90
2019-06-07T20:20:14.155Z,99.90
2019-06-07T20:22:42.721Z,99.90
2019-06-07T20:25:20.712Z,99.90
2019-06-07T20:27:49.836Z,99.90
2019-06-07T20:30:19.421Z,99.90
2019-06-07T20:32:48.094Z,99.90
2019-06-07T20:35:16.946Z,99.90
2019-06-07T20:37:45.716Z,99.90
2019-06-07T20:40:24.384Z,99.90
2019-06-07T20:42:45.374Z,99.90
2019-06-07T20:45:14.223Z,99.90
2019-06-07T20:47:43.173Z,99.90
2019-06-07T20:50:12.392Z,99.90
2019-06-07T20:52:41.032Z,99.90
2019-06-07T20:55:11.422Z,99.90
2019-06-07T20:57:40.225Z,99.90
2019-06-07T21:00:16.337Z,99.90
2019-06-07T21:02:40.565Z,99.90
2019-06-07T21:05:10.031Z,99.90
2019-06-07T21:07:38.797Z,99.90
2019-06-07T21:10:10.679Z,99.90
2019-06-07T21:12:39.770Z,99.90
2019-06-07T21:15:12.771Z,99.90
2019-06-07T21:17:39.973Z,99.90
2019-06-07T21:20:13.756Z,99.90
2019-06-07T21:22:53.394Z,99.90
2019-06-07T21:25:22.052Z,99.90
2019-06-07T21:27:50.700Z,99.90
2019-06-07T21:30:21.082Z,99.90
2019-06-07T21:32:50.009Z,99.90
2019-06-07T21:35:19.295Z,99.90
2019-06-07T21:37:47.994Z,99.90
2019-06-07T21:40:16.747Z,99.90
2019-06-07T21:42:47.399Z,99.90
2019-06-07T21:45:16.334Z,99.90
2019-06-07T21:47:44.935Z,99.90
2019-06-07T21:50:14.060Z,99.90
2019-06-07T21:52:43.046Z,99.90
2019-06-07T21:55:12.053Z,99.90
2019-06-07T21:57:40.723Z,99.90
2019-06-07T22:00:18.395Z,99.90
2019-06-07T22:02:48.583Z,99.90
2019-06-07T22:05:17.284Z,99.90
2019-06-07T22:07:46.118Z,99.90
2019-06-07T22:10:15.342Z,99.90
2019-06-07T22:12:44.020Z,99.90
2019-06-07T22:15:31.164Z,99.90
2019-06-07T22:17:43.375Z,99.90
2019-06-07T22:20:12.795Z,99.90
2019-06-07T22:22:41.480Z,99.90
2019-06-07T22:25:11.050Z,99.90
2019-06-07T22:27:39.921Z,99.90
2019-06-07T22:30:10.535Z,99.90
2019-06-07T22:32:39.177Z,99.90
2019-06-07T22:35:08.984Z,99.90
2019-06-07T22:37:38.935Z,99.90
2019-06-07T22:40:08.612Z,99.90
2019-06-07T22:42:38.481Z,99.90
2019-06-07T22:45:08.029Z,99.90
2019-06-07T22:47:38.164Z,99.90
2019-06-07T22:50:11.330Z,99.90
2019-06-07T22:52:41.473Z,99.90
2019-06-07T22:55:12.084Z,99.90
2019-06-07T22:57:54.557Z,99.90
2019-06-07T23:00:23.667Z,99.90
2019-06-07T23:02:52.291Z,99.90
2019-06-07T23:05:20.912Z,99.90
2019-06-07T23:07:50.070Z,99.90
2019-06-07T23:10:19.629Z,99.90
2019-06-07T23:12:48.630Z,99.90
2019-06-07T23:15:18.016Z,99.90
2019-06-07T23:17:47.623Z,99.90
2019-06-07T23:20:18.131Z,99.90
2019-06-07T23:22:46.883Z,99.90
2019-06-07T23:25:21.845Z,99.90
2019-06-07T23:27:47.183Z,99.90
2019-06-07T23:30:18.734Z,99.90
2019-06-07T23:32:47.605Z,99.90
2019-06-07T23:35:17.332Z,99.90
2019-06-07T23:37:46.475Z,99.90
2019-06-07T23:40:17.363Z,99.90
2019-06-07T23:42:46.292Z,99.90
2019-06-07T23:45:15.521Z,99.90
2019-06-07T23:47:44.257Z,99.90
2019-06-07T23:50:13.587Z,99.90
2019-06-07T23:52:42.446Z,99.90
2019-06-07T23:55:11.830Z,99.90
2019-06-07T23:57:40.539Z,99.90
